Climatologie pour Saint-Brevin les Pins
Jour • Résumé pour avril 17, 2017 Système :  Métrique    Anglais   Mixte
« - 1 jour
+ 1 jour »
Jour Semaine Mois Année Personnalisé
  Maximum : Minimum : Moyenne :
Température sous abri : -17.8 °C -15.9 °C -12 °C
Point de rosée : -17.8 °C -16.2 °C -13.5 °C
Humidité : Humidity % 65 % 84 %
Vitesse du vent : 0 km/h 0 km/h 5.5 km/h
Rafale : 0 km/h - -
Direction :- - SSE
Pression : 0 hPa 34601.5 hPa -
Précipitations : 0 mm    
Historical Graphs
 
 
Tableau de données pour avril 17, 2017
Heure Tempé Pt rosée Pression Vent Vitesse Rafale Humidité Taux pluie (/hr) Soleil
-17.8 °C -17.8 °C 0 hPa Calm     Humidity % 0 mm SolarRadiationWatts/m^2 W/m2 Conditions
00:00 -13.2 °C -13.7 °C 34693 hPa Calm     94 % 0 mm 0 W/m2
00:05 -13.3 °C -13.8 °C 34693 hPa Calm     94 % 0 mm 0 W/m2
00:10 -13.5 °C -14 °C 34693 hPa Calm   2.6 km/h 94 % 0 mm 0 W/m2
00:15 -13.4 °C -13.9 °C 34693 hPa Calm   5.1 km/h 94 % 0 mm 0 W/m2
00:20 -13.5 °C -14 °C 34693 hPa Calm   5.1 km/h 94 % 0 mm 0 W/m2
00:25 -13.6 °C -14.1 °C 34703.1 hPa Calm   5.1 km/h 94 % 0 mm 0 W/m2
00:30 -13.4 °C -13.9 °C 34703.1 hPa North 5.1 km/h 10.3 km/h 95 % 0 mm 0 W/m2
00:35 -13.4 °C -13.8 °C 34693 hPa Calm   10.3 km/h 95 % 0 mm 0 W/m2
00:40 -13.5 °C -13.9 °C 34693 hPa Calm   10.3 km/h 95 % 0 mm 0 W/m2
00:45 -13.4 °C -13.8 °C 34693 hPa Calm   10.3 km/h 95 % 0 mm 0 W/m2
00:50 -13.3 °C -13.7 °C 34693 hPa Calm   10.3 km/h 95 % 0 mm 0 W/m2
00:55 -13.3 °C -13.7 °C 34693 hPa NNE 2.6 km/h 10.3 km/h 95 % 0 mm 0 W/m2
01:00 -13.3 °C -13.7 °C 34693 hPa NNE 5.1 km/h 15.6 km/h 95 % 0 mm 0 W/m2
01:05 -13.3 °C -13.7 °C 34693 hPa NE 10.3 km/h 15.6 km/h 95 % 0 mm 0 W/m2
01:10 -13.3 °C -13.7 °C 34693 hPa NE 5.1 km/h 12.9 km/h 95 % 0 mm 0 W/m2
01:15 -13.3 °C -13.8 °C 34693 hPa Calm   12.9 km/h 94 % 0 mm 0 W/m2
01:20 -13.3 °C -13.8 °C 34693 hPa NNE 12.9 km/h 15.6 km/h 94 % 0 mm 0 W/m2
01:25 -13.4 °C -13.9 °C 34693 hPa NNE 10.3 km/h 18.2 km/h 94 % 0 mm 0 W/m2
01:30 -13.4 °C -14 °C 34693 hPa NE 5.1 km/h 18.2 km/h 93 % 0 mm 0 W/m2
01:35 -13.4 °C -14.1 °C 34693 hPa NE 5.1 km/h 15.6 km/h 93 % 0 mm 0 W/m2
01:40 -13.4 °C -14 °C 34693 hPa NE 7.7 km/h 15.6 km/h 93 % 0 mm 0 W/m2
01:45 -13.5 °C -14.1 °C 34693 hPa Calm   12.9 km/h 93 % 0 mm 0 W/m2
01:50 -13.4 °C -14.1 °C 34693 hPa Calm   12.9 km/h 93 % 0 mm 0 W/m2
01:55 -13.4 °C -14.1 °C 34693 hPa Calm   12.9 km/h 93 % 0 mm 0 W/m2
02:00 -13.5 °C -14.2 °C 34693 hPa NE 7.7 km/h 10.3 km/h 92 % 0 mm 0 W/m2
02:05 -13.5 °C -14.2 °C 34693 hPa Calm   10.3 km/h 92 % 0 mm 0 W/m2
02:10 -13.6 °C -14.3 °C 34693 hPa Calm   7.7 km/h 92 % 0 mm 0 W/m2
02:15 -13.7 °C -14.3 °C 34693 hPa NE 2.6 km/h 7.7 km/h 92 % 0 mm 0 W/m2
02:20 -13.8 °C -14.4 °C 34682.8 hPa Calm   7.7 km/h 92 % 0 mm 0 W/m2
02:25 -13.9 °C -14.6 °C 34682.8 hPa Calm   7.7 km/h 92 % 0 mm 0 W/m2
02:30 -14 °C -14.6 °C 34682.8 hPa NE 2.6 km/h 7.7 km/h 93 % 0 mm 0 W/m2
02:35 -14 °C -14.5 °C 34682.8 hPa Calm   7.7 km/h 94 % 0 mm 0 W/m2
02:40 -13.9 °C -14.6 °C 34682.8 hPa Calm   7.7 km/h 93 % 0 mm 0 W/m2
02:45 -14 °C -14.5 °C 34682.8 hPa Calm   7.7 km/h 94 % 0 mm 0 W/m2
02:50 -14.1 °C -14.7 °C 34682.8 hPa Calm   5.1 km/h 93 % 0 mm 0 W/m2
02:55 -14.2 °C -14.8 °C 34682.8 hPa Calm   7.7 km/h 93 % 0 mm 0 W/m2
03:00 -14.3 °C -14.8 °C 34669.3 hPa Calm   7.7 km/h 94 % 0 mm 0 W/m2
03:05 -14.2 °C -14.7 °C 34669.3 hPa Calm   2.6 km/h 94 % 0 mm 0 W/m2
03:10 -14.2 °C -14.7 °C 34669.3 hPa ENE 5.1 km/h 10.3 km/h 94 % 0 mm 0 W/m2
03:15 -14.2 °C -14.7 °C 34669.3 hPa Calm   10.3 km/h 94 % 0 mm 0 W/m2
03:25 -14.2 °C -14.7 °C 34669.3 hPa Calm   10.3 km/h 94 % 0 mm 0 W/m2
03:30 -14.3 °C -14.8 °C 34659.1 hPa Calm   2.6 km/h 94 % 0 mm 0 W/m2
03:35 -14.4 °C -14.9 °C 34659.1 hPa Calm   5.1 km/h 94 % 0 mm 0 W/m2
03:40 -14.5 °C -14.9 °C 34659.1 hPa Calm   5.1 km/h 94 % 0 mm 0 W/m2
03:45 -14.4 °C -14.9 °C 34659.1 hPa East 2.6 km/h 12.9 km/h 94 % 0 mm 0 W/m2
03:50 -14.5 °C -14.9 °C 34659.1 hPa East 2.6 km/h 12.9 km/h 94 % 0 mm 0 W/m2
03:55 -14.6 °C -15.1 °C 34659.1 hPa Calm   12.9 km/h 94 % 0 mm 0 W/m2
04:00 -14.6 °C -15.1 °C 34659.1 hPa Calm   12.9 km/h 94 % 0 mm 0 W/m2
04:05 -14.6 °C -15.1 °C 34659.1 hPa Calm   2.6 km/h 94 % 0 mm 0 W/m2
04:10 -14.7 °C -15.2 °C 34659.1 hPa Calm     94 % 0 mm 0 W/m2
04:15 -14.6 °C -15.1 °C 34659.1 hPa Calm   2.6 km/h 95 % 0 mm 0 W/m2
04:20 -14.6 °C -15.1 °C 34659.1 hPa Calm   2.6 km/h 95 % 0 mm 0 W/m2
04:25 -14.7 °C -15.2 °C 34659.1 hPa Calm   2.6 km/h 94 % 0 mm 0 W/m2
04:30 -14.8 °C -15.2 °C 34659.1 hPa Calm     95 % 0 mm 0 W/m2
04:35 -14.8 °C -15.3 °C 34659.1 hPa Calm     94 % 0 mm 0 W/m2
04:40 -14.9 °C -15.4 °C 34659.1 hPa Calm     94 % 0 mm 0 W/m2
04:45 -15.1 °C -15.5 °C 34659.1 hPa Calm     94 % 0 mm 0 W/m2
04:50 -15.1 °C -15.4 °C 34659.1 hPa Calm     95 % 0 mm 0 W/m2
04:55 -15.1 °C -15.6 °C 34659.1 hPa Calm     95 % 0 mm 0 W/m2
05:00 -15.2 °C -15.7 °C 34659.1 hPa Calm     95 % 0 mm 0 W/m2
05:05 -15.2 °C -15.6 °C 34645.6 hPa Calm     95 % 0 mm 0 W/m2
05:15 -15.3 °C -15.7 °C 34645.6 hPa Calm     95 % 0 mm 0 W/m2
05:20 -15.4 °C -15.8 °C 34645.6 hPa Calm     95 % 0 mm 0 W/m2
05:25 -15.4 °C -15.7 °C 34645.6 hPa Calm     96 % 0 mm 0 W/m2
05:30 -15.4 °C -15.8 °C 34645.6 hPa Calm     96 % 0 mm 0 W/m2
05:35 -15.4 °C -15.9 °C 34645.6 hPa Calm     95 % 0 mm 0 W/m2
05:45 -15.6 °C -15.9 °C 34645.6 hPa Calm     96 % 0 mm 0 W/m2
05:50 -15.6 °C -15.9 °C 34645.6 hPa Calm     96 % 0 mm 0 W/m2
05:55 -15.7 °C -15.9 °C 34645.6 hPa Calm     96 % 0 mm 0 W/m2
06:00 -15.5 °C -15.8 °C 34645.6 hPa Calm     96 % 0 mm 0 W/m2
06:05 -15.5 °C -15.8 °C 34645.6 hPa Calm     96 % 0 mm 0 W/m2
06:10 -15.5 °C -15.8 °C 34645.6 hPa Calm     96 % 0 mm 0 W/m2
06:15 -15.5 °C -15.8 °C 34645.6 hPa Calm     96 % 0 mm 0 W/m2
06:20 -15.6 °C -15.9 °C 34645.6 hPa Calm     96 % 0 mm 0 W/m2
06:25 -15.7 °C -15.9 °C 34645.6 hPa Calm     96 % 0 mm 0 W/m2
06:35 -15.7 °C -16 °C 34645.6 hPa Calm     96 % 0 mm 0 W/m2
06:40 -15.8 °C -16.1 °C 34645.6 hPa Calm     96 % 0 mm 0 W/m2
06:45 -15.8 °C -16.1 °C 34645.6 hPa Calm     96 % 0 mm 0 W/m2
06:50 -15.9 °C -16.2 °C 34645.6 hPa Calm     96 % 0 mm 0 W/m2
06:55 -15.8 °C -16.1 °C 34635.4 hPa Calm     96 % 0 mm 0 W/m2
07:00 -15.9 °C -16.2 °C 34635.4 hPa Calm     96 % 0 mm 0 W/m2
07:05 -15.9 °C -16.2 °C 34635.4 hPa Calm     96 % 0 mm 0 W/m2
07:10 -15.7 °C -16.1 °C 34645.6 hPa Calm     96 % 0 mm 0 W/m2
07:15 -15.9 °C -16.2 °C 34645.6 hPa Calm     96 % 0 mm 0 W/m2
07:20 -15.8 °C -16.1 °C 34645.6 hPa Calm     96 % 0 mm 5 W/m2
07:25 -15.8 °C -16.2 °C 34645.6 hPa Calm     96 % 0 mm 7 W/m2
07:30 -15.9 °C -16.2 °C 34645.6 hPa Calm     96 % 0 mm 11 W/m2
07:35 -15.8 °C -16.1 °C 34645.6 hPa Calm     96 % 0 mm 14 W/m2
07:40 -15.8 °C -16.2 °C 34645.6 hPa Calm   2.6 km/h 96 % 0 mm 18 W/m2
07:45 -15.8 °C -16.2 °C 34645.6 hPa Calm   2.6 km/h 96 % 0 mm 21 W/m2
07:50 -15.8 °C -16.1 °C 34645.6 hPa Calm     96 % 0 mm 23 W/m2
07:55 -15.7 °C -16.1 °C 34645.6 hPa Calm     96 % 0 mm 25 W/m2
08:00 -15.7 °C -15.9 °C 34645.6 hPa Calm     97 % 0 mm 28 W/m2
08:05 -15.4 °C -15.7 °C 34645.6 hPa Calm     97 % 0 mm 30 W/m2
08:10 -15.4 °C -15.7 °C 34645.6 hPa Calm     97 % 0 mm 32 W/m2
08:15 -15.3 °C -15.6 °C 34645.6 hPa Calm     97 % 0 mm 35 W/m2
08:20 -15.1 °C -15.3 °C 34659.1 hPa Calm     97 % 0 mm 39 W/m2
08:25 -14.9 °C -15.1 °C 34645.6 hPa Calm     97 % 0 mm 120 W/m2
08:30 -14.6 °C -14.9 °C 34659.1 hPa Calm     97 % 0 mm 144 W/m2
08:40 -14.1 °C -14.4 °C 34659.1 hPa Calm     97 % 0 mm 176 W/m2
08:45 -13.8 °C -14.1 °C 34659.1 hPa Calm   2.6 km/h 97 % 0 mm 190 W/m2
08:55 -13.3 °C -13.6 °C 34659.1 hPa Calm   5.1 km/h 97 % 0 mm 223 W/m2
09:00 -13.1 °C -13.4 °C 34659.1 hPa Calm   5.1 km/h 97 % 0 mm 239 W/m2
09:05 -12.9 °C -13.3 °C 34659.1 hPa Calm   7.7 km/h 96 % 0 mm 253 W/m2
09:10 -12.8 °C -13.2 °C 34659.1 hPa Calm   10.3 km/h 96 % 0 mm 269 W/m2
09:15 -12.7 °C -13 °C 34659.1 hPa Calm   10.3 km/h 96 % 0 mm 283 W/m2
09:20 -12.5 °C -12.9 °C 34659.1 hPa North 2.6 km/h 7.7 km/h 95 % 0 mm 299 W/m2
09:25 -12.3 °C -12.8 °C 34659.1 hPa NNW 2.6 km/h 7.7 km/h 94 % 0 mm 315 W/m2
09:30 -12.1 °C -12.7 °C 34659.1 hPa NNE 7.7 km/h 10.3 km/h 93 % 0 mm 327 W/m2
09:35 -12.1 °C -12.9 °C 34659.1 hPa Calm   15.6 km/h 91 % 0 mm 345 W/m2
09:40 -12 °C -12.9 °C 34659.1 hPa North 10.3 km/h 18.2 km/h 90 % 0 mm 359 W/m2
09:50 -11.8 °C -12.9 °C 34659.1 hPa NE 5.1 km/h 18.2 km/h 88 % 0 mm 381 W/m2
09:55 -11.8 °C -12.9 °C 34659.1 hPa NNE 2.6 km/h 18.2 km/h 87 % 0 mm 397 W/m2
10:05 -11.4 °C -12.7 °C 34645.6 hPa Calm   15.6 km/h 86 % 0 mm 425 W/m2
10:10 -11.3 °C -12.6 °C 34645.6 hPa North 2.6 km/h 15.6 km/h 86 % 0 mm 439 W/m2
10:15 -11.3 °C -12.5 °C 34645.6 hPa NE 2.6 km/h 12.9 km/h 86 % 0 mm 455 W/m2
10:25 -11 °C -12.5 °C 34645.6 hPa Calm   15.6 km/h 84 % 0 mm 482 W/m2
10:30 -11 °C -12.7 °C 34645.6 hPa Calm   15.6 km/h 82 % 0 mm 497 W/m2
10:35 -10.9 °C -12.4 °C 34645.6 hPa NNE 7.7 km/h 12.9 km/h 84 % 0 mm 512 W/m2
10:40 -10.7 °C -12.3 °C 34645.6 hPa NNW 7.7 km/h 18.2 km/h 82 % 0 mm 526 W/m2
10:45 -10.7 °C -12.6 °C 34645.6 hPa NW 5.1 km/h 18.2 km/h 80 % 0 mm 541 W/m2
10:50 -10.7 °C -12.7 °C 34645.6 hPa NNW 5.1 km/h 20.8 km/h 79 % 0 mm 554 W/m2
10:55 -10.4 °C -12.6 °C 34645.6 hPa NNE 5.1 km/h 20.8 km/h 77 % 0 mm 563 W/m2
11:00 -10.2 °C -12.3 °C 34645.6 hPa NW 18.2 km/h 18.2 km/h 78 % 0 mm 577 W/m2
11:05 -10.3 °C -12.8 °C 34645.6 hPa Calm   18.2 km/h 75 % 0 mm 589 W/m2
11:10 -10.2 °C -12.4 °C 34645.6 hPa Calm   15.6 km/h 77 % 0 mm 603 W/m2
11:15 -10.2 °C -12.6 °C 34645.6 hPa ENE 5.1 km/h 15.6 km/h 75 % 0 mm 615 W/m2
11:20 -10.1 °C -12.7 °C 34645.6 hPa East 2.6 km/h 23.3 km/h 74 % 0 mm 624 W/m2
11:25 -9.8 °C -12.2 °C 34645.6 hPa North 18.2 km/h 23.3 km/h 75 % 0 mm 636 W/m2
11:30 -10.1 °C -12.9 °C 34645.6 hPa NNW 2.6 km/h 20.8 km/h 71 % 0 mm 652 W/m2
11:35 -9.8 °C -12.4 °C 34645.6 hPa North 10.3 km/h 18.2 km/h 74 % 0 mm 663 W/m2
11:40 -9.6 °C -12.4 °C 34645.6 hPa NE 7.7 km/h 23.3 km/h 72 % 0 mm 675 W/m2
11:45 -9.8 °C -13 °C 34645.6 hPa NNW 7.7 km/h 23.3 km/h 68 % 0 mm 701 W/m2
11:50 -9.8 °C -13.1 °C 34645.6 hPa NW 10.3 km/h 18.2 km/h 68 % 0 mm 749 W/m2
11:55 -9.8 °C -12.8 °C 34645.6 hPa NNE 20.8 km/h 20.8 km/h 70 % 0 mm 809 W/m2
12:00 -9.9 °C -13 °C 34645.6 hPa NE 2.6 km/h 20.8 km/h 69 % 0 mm 357 W/m2
12:05 -9.9 °C -13 °C 34645.6 hPa East 5.1 km/h 20.8 km/h 69 % 0 mm 163 W/m2
12:10 -9.9 °C -12.7 °C 34645.6 hPa NE 15.6 km/h 20.8 km/h 72 % 0 mm 816 W/m2
12:20 -9.5 °C -12.5 °C 34645.6 hPa ENE 7.7 km/h 15.6 km/h 70 % 0 mm 329 W/m2
12:25 -9.4 °C -12.6 °C 34635.4 hPa Calm   15.6 km/h 69 % 0 mm 988 W/m2
12:30 -9.2 °C -12.6 °C 34635.4 hPa WNW 5.1 km/h 15.6 km/h 67 % 0 mm 272 W/m2
12:35 -9.6 °C -12.7 °C 34645.6 hPa North 10.3 km/h 18.2 km/h 69 % 0 mm 308 W/m2
12:40 -9.8 °C -12.9 °C 34645.6 hPa WNW 5.1 km/h 18.2 km/h 69 % 0 mm 269 W/m2
12:45 -9.6 °C -12.8 °C 34635.4 hPa WNW 5.1 km/h 15.6 km/h 68 % 0 mm 316 W/m2
12:50 -9.6 °C -12.9 °C 34635.4 hPa NNW 10.3 km/h 15.6 km/h 68 % 0 mm 454 W/m2
12:55 -9.4 °C -13.1 °C 34635.4 hPa Calm   15.6 km/h 65 % 0 mm 299 W/m2
13:00 -9.9 °C -12.9 °C 34635.4 hPa WNW 10.3 km/h 20.8 km/h 70 % 0 mm 297 W/m2
13:05 -10 °C -12.8 °C 34635.4 hPa WNW 15.6 km/h 20.8 km/h 72 % 0 mm 260 W/m2
13:10 -10.1 °C -12.7 °C 34635.4 hPa WNW 2.6 km/h 20.8 km/h 74 % 0 mm 1076 W/m2
13:15 -9.8 °C -12.8 °C 34635.4 hPa WNW 7.7 km/h 18.2 km/h 70 % 0 mm 221 W/m2
13:20 -9.6 °C -12.1 °C 34635.4 hPa WSW 7.7 km/h 18.2 km/h 75 % 0 mm 905 W/m2
13:25 -9.3 °C -11.9 °C 34635.4 hPa WNW 10.3 km/h 15.6 km/h 73 % 0 mm 1143 W/m2
13:30 -9.4 °C -12.1 °C 34635.4 hPa West 12.9 km/h 18.2 km/h 73 % 0 mm 360 W/m2
13:35 -9.8 °C -12.3 °C 34635.4 hPa WSW 10.3 km/h 18.2 km/h 74 % 0 mm 348 W/m2
13:40 -9.8 °C -12.5 °C 34635.4 hPa WNW 12.9 km/h 18.2 km/h 73 % 0 mm 353 W/m2
13:45 -10.1 °C -12.5 °C 34635.4 hPa West 12.9 km/h 25.9 km/h 75 % 0 mm 308 W/m2
13:50 -10.1 °C -12.4 °C 34635.4 hPa West 10.3 km/h 25.9 km/h 76 % 0 mm 341 W/m2
13:55 -9.8 °C -12.2 °C 34635.4 hPa West 10.3 km/h 23.3 km/h 75 % 0 mm 1095 W/m2
14:00 -9.8 °C -12.4 °C 34635.4 hPa WSW 10.3 km/h 28.5 km/h 74 % 0 mm 367 W/m2
14:05 -10.1 °C -12.4 °C 34625.2 hPa WNW 7.7 km/h 28.5 km/h 76 % 0 mm 343 W/m2
14:10 -10.1 °C -12.4 °C 34625.2 hPa WNW 7.7 km/h 23.3 km/h 76 % 0 mm 306 W/m2
14:15 -9.8 °C -11.9 °C 34625.2 hPa West 10.3 km/h 25.9 km/h 78 % 0 mm 879 W/m2
14:20 -9.6 °C -12.1 °C 34625.2 hPa WNW 12.9 km/h 25.9 km/h 74 % 0 mm 939 W/m2
14:25 -9.5 °C -11.9 °C 34625.2 hPa West 18.2 km/h 25.9 km/h 75 % 0 mm 555 W/m2
14:30 -9.3 °C -11.8 °C 34625.2 hPa SW 10.3 km/h 25.9 km/h 75 % 0 mm 520 W/m2
14:35 -9.7 °C -12.2 °C 34625.2 hPa WSW 18.2 km/h 25.9 km/h 74 % 0 mm 359 W/m2
14:40 -10.1 °C -12.4 °C 34635.4 hPa West 15.6 km/h 31.1 km/h 75 % 0 mm 341 W/m2
14:45 -10.2 °C -12.5 °C 34635.4 hPa West 15.6 km/h 31.1 km/h 76 % 0 mm 309 W/m2
14:50 -10.2 °C -12.3 °C 34635.4 hPa WNW 12.9 km/h 28.5 km/h 78 % 0 mm 334 W/m2
14:55 -10.2 °C -12.3 °C 34635.4 hPa West 20.8 km/h 31.1 km/h 78 % 0 mm 353 W/m2
15:00 -10.1 °C -11.9 °C 34635.4 hPa WNW 18.2 km/h 31.1 km/h 80 % 0 mm 408 W/m2
15:05 -10 °C -12 °C 34625.2 hPa West 15.6 km/h 28.5 km/h 79 % 0 mm 545 W/m2
15:10 -9.6 °C -11.7 °C 34625.2 hPa West 23.3 km/h 28.5 km/h 78 % 0 mm 1174 W/m2
15:15 -9.6 °C -12.2 °C 34625.2 hPa SW 15.6 km/h 31.1 km/h 74 % 0 mm 475 W/m2
15:20 -9.6 °C -12.1 °C 34625.2 hPa NW 12.9 km/h 31.1 km/h 75 % 0 mm 397 W/m2
15:25 -9.8 °C -12 °C 34625.2 hPa West 15.6 km/h 25.9 km/h 77 % 0 mm 313 W/m2
15:30 -10.1 °C -12.4 °C 34625.2 hPa WNW 23.3 km/h 31.1 km/h 76 % 0 mm 320 W/m2
15:35 -10.1 °C -12.1 °C 34625.2 hPa West 10.3 km/h 31.1 km/h 79 % 0 mm 469 W/m2
15:40 -9.9 °C -12.1 °C 34625.2 hPa WNW 12.9 km/h 28.5 km/h 78 % 0 mm 454 W/m2
15:45 -9.6 °C -11.9 °C 34625.2 hPa WSW 15.6 km/h 28.5 km/h 76 % 0 mm 680 W/m2
15:50 -9.4 °C -11.8 °C 34625.2 hPa NW 15.6 km/h 31.1 km/h 75 % 0 mm 680 W/m2
15:55 -9.6 °C -12.1 °C 34625.2 hPa SW 20.8 km/h 38.8 km/h 75 % 0 mm 294 W/m2
16:00 -9.9 °C -11.9 °C 34625.2 hPa WSW 10.3 km/h 38.8 km/h 79 % 0 mm 243 W/m2
16:05 -10.1 °C -12 °C 34611.7 hPa WSW 12.9 km/h 33.6 km/h 80 % 0 mm 236 W/m2
16:10 -10.1 °C -11.9 °C 34611.7 hPa West 12.9 km/h 28.5 km/h 81 % 0 mm 236 W/m2
16:15 -10.1 °C -11.7 °C 34611.7 hPa WNW 5.1 km/h 25.9 km/h 82 % 0 mm 253 W/m2
16:20 -10 °C -11.7 °C 34611.7 hPa WNW 12.9 km/h 25.9 km/h 82 % 0 mm 239 W/m2
16:25 -10.1 °C -11.8 °C 34611.7 hPa WNW 10.3 km/h 25.9 km/h 82 % 0 mm 199 W/m2
16:30 -10.1 °C -11.7 °C 34611.7 hPa West 18.2 km/h 25.9 km/h 82 % 0 mm 221 W/m2
16:35 -10.1 °C -11.7 °C 34611.7 hPa West 7.7 km/h 23.3 km/h 82 % 0 mm 269 W/m2
16:40 -9.8 °C -11.4 °C 34611.7 hPa Calm   20.8 km/h 82 % 0 mm 290 W/m2
16:45 -9.7 °C -11.6 °C 34611.7 hPa West 15.6 km/h 20.8 km/h 80 % 0 mm 311 W/m2
16:50 -9.6 °C -11.4 °C 34611.7 hPa SW 10.3 km/h 20.8 km/h 81 % 0 mm 327 W/m2
16:55 -9.4 °C -11.3 °C 34611.7 hPa WNW 10.3 km/h 20.8 km/h 80 % 0 mm 427 W/m2
17:00 -9.2 °C -11.3 °C 34611.7 hPa West 15.6 km/h 23.3 km/h 78 % 0 mm 754 W/m2
17:05 -9.1 °C -11.5 °C 34611.7 hPa WSW 23.3 km/h 23.3 km/h 76 % 0 mm 779 W/m2
17:10 -9.1 °C -11.6 °C 34601.5 hPa WSW 7.7 km/h 23.3 km/h 75 % 0 mm 489 W/m2
17:15 -9.3 °C -11.7 °C 34601.5 hPa West 10.3 km/h 23.3 km/h 75 % 0 mm 264 W/m2
17:20 -9.4 °C -11.6 °C 34601.5 hPa West 7.7 km/h 23.3 km/h 77 % 0 mm 221 W/m2
17:25 -9.7 °C -11.9 °C 34601.5 hPa West 7.7 km/h 28.5 km/h 77 % 0 mm 207 W/m2
17:30 -9.8 °C -11.8 °C 34601.5 hPa West 7.7 km/h 28.5 km/h 79 % 0 mm 229 W/m2
17:35 -9.8 °C -11.7 °C 34601.5 hPa NW 10.3 km/h 25.9 km/h 80 % 0 mm 260 W/m2
17:40 -9.5 °C -11.4 °C 34601.5 hPa WNW 7.7 km/h 25.9 km/h 80 % 0 mm 274 W/m2
17:45 -9.4 °C -11.6 °C 34601.5 hPa West 20.8 km/h 23.3 km/h 77 % 0 mm 250 W/m2
17:50 -9.5 °C -11.5 °C 34601.5 hPa WSW 7.7 km/h 25.9 km/h 79 % 0 mm 283 W/m2
18:00 -9.5 °C -11.6 °C 34601.5 hPa West 12.9 km/h 23.3 km/h 78 % 0 mm 181 W/m2
18:05 -9.6 °C -11.6 °C 34601.5 hPa West 12.9 km/h 23.3 km/h 79 % 0 mm 185 W/m2
18:10 -9.7 °C -11.4 °C 34601.5 hPa WNW 12.9 km/h 18.2 km/h 81 % 0 mm 195 W/m2
18:15 -9.7 °C -11.5 °C 34601.5 hPa WSW 5.1 km/h 18.2 km/h 81 % 0 mm 181 W/m2
18:20 -9.6 °C -11.2 °C 34601.5 hPa WSW 5.1 km/h 18.2 km/h 82 % 0 mm 172 W/m2
18:25 -9.4 °C -11.2 °C 34601.5 hPa Calm   12.9 km/h 81 % 0 mm 156 W/m2
18:30 -9.5 °C -11.7 °C 34601.5 hPa WSW 5.1 km/h 7.7 km/h 77 % 0 mm 162 W/m2
18:35 -9.5 °C -11.8 °C 34601.5 hPa Calm   7.7 km/h 76 % 0 mm 160 W/m2
18:40 -9.3 °C -11.8 °C 34601.5 hPa Calm   7.7 km/h 75 % 0 mm 148 W/m2
18:45 -9.3 °C -11.6 °C 34601.5 hPa Calm   7.7 km/h 76 % 0 mm 141 W/m2
18:50 -9.3 °C -12.2 °C 34601.5 hPa NNE 20.8 km/h 20.8 km/h 71 % 0 mm 149 W/m2
18:55 -9.2 °C -12.2 °C 34601.5 hPa North 5.1 km/h 23.3 km/h 70 % 0 mm 139 W/m2
19:00 -9.2 °C -12.4 °C 34601.5 hPa NNE 5.1 km/h 23.3 km/h 69 % 0 mm 118 W/m2
19:05 -9.3 °C -12.6 °C 34601.5 hPa North 2.6 km/h 23.3 km/h 68 % 0 mm 107 W/m2
19:10 -9.3 °C -12.8 °C 34601.5 hPa NNW 15.6 km/h 23.3 km/h 66 % 0 mm 104 W/m2
19:15 -9.4 °C -12.9 °C 34601.5 hPa NNE 5.1 km/h 20.8 km/h 66 % 0 mm 91 W/m2
19:20 -9.4 °C -12.6 °C 34601.5 hPa Calm   20.8 km/h 69 % 0 mm 77 W/m2
19:25 -9.6 °C -12.9 °C 34601.5 hPa NNE 12.9 km/h 23.3 km/h 67 % 0 mm 67 W/m2
19:30 -9.6 °C -12.9 °C 34601.5 hPa NNE 5.1 km/h 23.3 km/h 67 % 0 mm 56 W/m2
19:35 -9.8 °C -12.4 °C 34601.5 hPa ENE 2.6 km/h 15.6 km/h 73 % 0 mm 46 W/m2
19:40 -10.1 °C -12.7 °C 34601.5 hPa North 7.7 km/h 15.6 km/h 73 % 0 mm 39 W/m2
19:45 -10.2 °C -12.8 °C 34601.5 hPa North 2.6 km/h 12.9 km/h 73 % 0 mm 40 W/m2
19:50 -10.2 °C -12.7 °C 34601.5 hPa NNE 10.3 km/h 15.6 km/h 74 % 0 mm 39 W/m2
19:55 -10.1 °C -13.1 °C 34601.5 hPa NE 2.6 km/h 18.2 km/h 70 % 0 mm 97 W/m2
20:00 -10.1 °C -12.9 °C 34601.5 hPa NE 7.7 km/h 18.2 km/h 71 % 0 mm 81 W/m2
20:05 -9.9 °C -12.9 °C 34601.5 hPa NNE 12.9 km/h 18.2 km/h 70 % 0 mm 39 W/m2
20:10 -10.1 °C -12.8 °C 34601.5 hPa NNE 5.1 km/h 18.2 km/h 72 % 0 mm 39 W/m2
20:15 -10.2 °C -12.8 °C 34611.7 hPa NNE 2.6 km/h 15.6 km/h 73 % 0 mm 28 W/m2
20:20 -10.3 °C -12.8 °C 34611.7 hPa NE 2.6 km/h 15.6 km/h 74 % 0 mm 26 W/m2
20:25 -10.4 °C -12.8 °C 34611.7 hPa NNE 2.6 km/h 12.9 km/h 75 % 0 mm 23 W/m2
20:30 -10.5 °C -12.8 °C 34611.7 hPa Calm   10.3 km/h 76 % 0 mm 18 W/m2
20:35 -10.6 °C -12.9 °C 34611.7 hPa North 7.7 km/h 15.6 km/h 76 % 0 mm 14 W/m2
20:40 -10.7 °C -12.9 °C 34611.7 hPa NNE 2.6 km/h 15.6 km/h 77 % 0 mm 12 W/m2
20:45 -10.9 °C -12.9 °C 34611.7 hPa NNE 2.6 km/h 12.9 km/h 79 % 0 mm 9 W/m2
20:50 -11.1 °C -13.1 °C 34611.7 hPa Calm   10.3 km/h 79 % 0 mm 7 W/m2
20:55 -11.2 °C -13.1 °C 34611.7 hPa Calm   10.3 km/h 80 % 0 mm 5 W/m2
21:00 -11.3 °C -13.1 °C 34625.2 hPa NE 2.6 km/h 12.9 km/h 81 % 0 mm 0 W/m2
21:05 -11.2 °C -13.1 °C 34625.2 hPa NE 7.7 km/h 20.8 km/h 80 % 0 mm 0 W/m2
21:10 -11.2 °C -13.1 °C 34625.2 hPa ENE 10.3 km/h 20.8 km/h 80 % 0 mm 0 W/m2
21:15 -11.1 °C -13.2 °C 34625.2 hPa ENE 18.2 km/h 20.8 km/h 78 % 0 mm 0 W/m2
21:20 -11 °C -13.2 °C 34625.2 hPa North 5.1 km/h 23.3 km/h 77 % 0 mm 0 W/m2
21:25 -11 °C -13.3 °C 34625.2 hPa NNW 12.9 km/h 23.3 km/h 76 % 0 mm 0 W/m2
21:30 -11 °C -13.3 °C 34635.4 hPa NNE 7.7 km/h 20.8 km/h 76 % 0 mm 0 W/m2
21:35 -11.1 °C -13.4 °C 34635.4 hPa NE 15.6 km/h 23.3 km/h 76 % 0 mm 0 W/m2
21:40 -11.1 °C -13.3 °C 34635.4 hPa NE 2.6 km/h 23.3 km/h 76 % 0 mm 0 W/m2
21:45 -11.1 °C -13.3 °C 34635.4 hPa Calm   20.8 km/h 76 % 0 mm 0 W/m2
21:50 -11.2 °C -13.3 °C 34645.6 hPa NNE 10.3 km/h 20.8 km/h 77 % 0 mm 0 W/m2
21:55 -11.1 °C -13.3 °C 34645.6 hPa East 5.1 km/h 20.8 km/h 76 % 0 mm 0 W/m2
22:00 -11.1 °C -13.3 °C 34645.6 hPa North 5.1 km/h 20.8 km/h 76 % 0 mm 0 W/m2
22:05 -11.1 °C -13.3 °C 34645.6 hPa NNE 2.6 km/h 20.8 km/h 76 % 0 mm 0 W/m2
22:10 -11.2 °C -13.4 °C 34645.6 hPa NNE 15.6 km/h 20.8 km/h 76 % 0 mm 0 W/m2
22:15 -11.3 °C -13.4 °C 34645.6 hPa ENE 25.9 km/h 25.9 km/h 77 % 0 mm 0 W/m2
22:20 -11.4 °C -13.5 °C 34645.6 hPa NNE 2.6 km/h 25.9 km/h 78 % 0 mm 0 W/m2
22:25 -11.5 °C -13.6 °C 34659.1 hPa NNE 10.3 km/h 20.8 km/h 78 % 0 mm 0 W/m2
22:30 -11.5 °C -13.6 °C 34659.1 hPa Calm   18.2 km/h 78 % 0 mm 0 W/m2
22:35 -11.6 °C -13.6 °C 34659.1 hPa NNE 7.7 km/h 18.2 km/h 79 % 0 mm 0 W/m2
22:40 -11.7 °C -13.7 °C 34659.1 hPa NNE 5.1 km/h 15.6 km/h 79 % 0 mm 0 W/m2
22:45 -11.8 °C -13.7 °C 34659.1 hPa NNE 7.7 km/h 15.6 km/h 80 % 0 mm 0 W/m2
22:50 -11.8 °C -13.7 °C 34659.1 hPa Calm   15.6 km/h 80 % 0 mm 0 W/m2
22:55 -12 °C -13.8 °C 34659.1 hPa NE 5.1 km/h 15.6 km/h 80 % 0 mm 0 W/m2
23:00 -12.1 °C -13.8 °C 34669.3 hPa NNE 10.3 km/h 15.6 km/h 81 % 0 mm 0 W/m2
23:05 -12.2 °C -13.9 °C 34669.3 hPa NE 7.7 km/h 15.6 km/h 81 % 0 mm 0 W/m2
23:10 -12.3 °C -14 °C 34659.1 hPa NE 2.6 km/h 15.6 km/h 81 % 0 mm 0 W/m2
23:15 -12.4 °C -14 °C 34659.1 hPa NE 5.1 km/h 15.6 km/h 82 % 0 mm 0 W/m2
23:20 -12.6 °C -14.1 °C 34669.3 hPa NE 10.3 km/h 15.6 km/h 83 % 0 mm 0 W/m2
23:25 -12.6 °C -14.1 °C 34669.3 hPa NE 2.6 km/h 15.6 km/h 83 % 0 mm 0 W/m2
23:30 -12.6 °C -14.1 °C 34669.3 hPa NE 7.7 km/h 10.3 km/h 84 % 0 mm 0 W/m2
23:35 -12.7 °C -14.1 °C 34669.3 hPa NE 5.1 km/h 12.9 km/h 84 % 0 mm 0 W/m2
23:40 -12.7 °C -14.1 °C 34659.1 hPa NNE 7.7 km/h 12.9 km/h 84 % 0 mm 0 W/m2
23:45 -12.7 °C -14.1 °C 34669.3 hPa NNE 5.1 km/h 18.2 km/h 84 % 0 mm 0 W/m2
23:50 -12.7 °C -14.1 °C 34669.3 hPa NE 2.6 km/h 18.2 km/h 84 % 0 mm 0 W/m2
23:55 -12.6 °C -14 °C 34669.3 hPa NE 5.1 km/h 15.6 km/h 84 % 0 mm 0 W/m2
Avec l'autorisation de Weather Underground - 1.75 mb